createdAt,value
2022-11-10T00:03:13.767Z,13.43
2022-11-10T00:06:36.834Z,5.53
2022-11-10T00:09:59.412Z,3.95
2022-11-10T00:13:22.283Z,2.38
2022-11-10T00:17:04.832Z,4.22
2022-11-10T00:20:29.943Z,2.97
2022-11-10T00:23:55.552Z,5.60
2022-11-10T00:27:21.343Z,2.50
2022-11-10T00:30:46.771Z,2.47
2022-11-10T00:34:13.487Z,4.80
2022-11-10T00:37:39.022Z,2.50
2022-11-10T00:41:02.312Z,1.70
2022-11-10T00:44:24.880Z,2.38
2022-11-10T00:47:50.250Z,2.80
2022-11-10T00:51:28.089Z,2.40
2022-11-10T00:54:51.340Z,3.80
2022-11-10T00:58:14.469Z,4.65
2022-11-10T01:01:45.663Z,2.60
2022-11-10T01:05:08.643Z,3.10
2022-11-10T01:08:31.335Z,3.53
2022-11-10T01:11:55.194Z,4.13
2022-11-10T01:15:19.896Z,2.30
2022-11-10T01:18:51.593Z,2.33
2022-11-10T01:22:14.493Z,1.63
2022-11-10T01:25:37.808Z,2.22
2022-11-10T01:29:01.697Z,1.80
2022-11-10T01:32:24.597Z,1.85
2022-11-10T01:35:47.989Z,1.73
2022-11-10T01:39:11.108Z,1.45
2022-11-10T01:43:01.501Z,2.58
2022-11-10T01:46:24.595Z,2.88
2022-11-10T01:49:47.368Z,1.90
2022-11-10T01:53:15.777Z,6.10
2022-11-10T01:56:43.695Z,3.00
2022-11-10T02:00:07.046Z,2.75
2022-11-10T02:03:36.825Z,2.08
2022-11-10T02:07:00.777Z,3.00
2022-11-10T02:10:23.732Z,3.75
2022-11-10T02:13:46.771Z,4.10
2022-11-10T02:17:09.893Z,3.47
2022-11-10T02:20:33.095Z,3.45
2022-11-10T02:23:56.200Z,4.70
2022-11-10T02:27:18.986Z,4.70
2022-11-10T02:30:41.549Z,4.00
2022-11-10T02:34:05.024Z,2.75
2022-11-10T02:37:27.950Z,3.28
2022-11-10T02:40:51.632Z,3.05
2022-11-10T02:44:14.554Z,2.60
2022-11-10T02:47:37.807Z,3.15
2022-11-10T02:51:00.566Z,3.03
2022-11-10T02:54:23.155Z,2.33
2022-11-10T02:57:46.141Z,2.45
2022-11-10T03:01:09.251Z,3.17
2022-11-10T03:04:32.139Z,3.03
2022-11-10T03:07:56.500Z,10.50
2022-11-10T03:11:19.502Z,11.52
2022-11-10T03:14:42.002Z,3.00
2022-11-10T03:18:06.703Z,2.30
2022-11-10T03:21:29.424Z,7.20
2022-11-10T03:24:52.721Z,9.90
2022-11-10T03:28:16.440Z,7.20
2022-11-10T03:31:39.855Z,21.92
2022-11-10T03:35:03.211Z,9.40
2022-11-10T03:38:25.811Z,11.90
2022-11-10T03:41:48.995Z,4.82
2022-11-10T03:45:13.857Z,14.80
2022-11-10T03:48:37.458Z,2.50
2022-11-10T03:52:00.491Z,3.42
2022-11-10T03:55:23.643Z,1.98
2022-11-10T03:58:46.415Z,2.25
2022-11-10T04:02:09.269Z,2.50
2022-11-10T04:05:50.586Z,2.40
2022-11-10T04:09:15.552Z,3.40
2022-11-10T04:12:57.307Z,2.80
2022-11-10T04:16:20.365Z,1.95
2022-11-10T04:19:43.354Z,2.25
2022-11-10T04:23:26.206Z,1.98
2022-11-10T04:26:49.865Z,2.40
2022-11-10T04:30:13.159Z,1.50
2022-11-10T04:33:37.207Z,2.97
2022-11-10T04:37:00.349Z,4.35
2022-11-10T04:40:22.542Z,2.08
2022-11-10T04:43:45.937Z,4.10
2022-11-10T04:47:11.871Z,2.35
2022-11-10T04:50:35.934Z,2.22
2022-11-10T04:53:58.688Z,3.33
2022-11-10T04:57:21.669Z,3.80
2022-11-10T05:00:44.881Z,2.50
2022-11-10T05:04:07.497Z,2.90
2022-11-10T05:07:30.531Z,5.55
2022-11-10T05:10:53.410Z,3.97
2022-11-10T05:14:15.981Z,2.75
2022-11-10T05:17:39.210Z,2.88
2022-11-10T05:21:02.525Z,3.30
2022-11-10T05:24:25.728Z,2.75
2022-11-10T05:27:48.792Z,3.00
2022-11-10T05:31:12.395Z,2.35
2022-11-10T05:34:35.393Z,2.97
2022-11-10T05:37:58.594Z,7.55
2022-11-10T05:41:21.385Z,4.20
2022-11-10T05:44:44.042Z,4.07
2022-11-10T05:48:08.232Z,3.08
2022-11-10T05:51:30.957Z,6.90
2022-11-10T05:54:56.369Z,32.28
2022-11-10T05:58:19.665Z,27.95
2022-11-10T06:01:42.657Z,3.75
2022-11-10T06:05:05.711Z,19.10
2022-11-10T06:08:28.659Z,5.82
2022-11-10T06:11:52.133Z,3.47
2022-11-10T06:15:16.616Z,3.00
2022-11-10T06:18:39.790Z,6.72
2022-11-10T06:22:07.354Z,6.22
2022-11-10T06:25:32.220Z,3.55
2022-11-10T06:28:55.370Z,18.00
2022-11-10T06:32:18.344Z,3.33
2022-11-10T06:35:41.085Z,3.80
2022-11-10T06:39:04.741Z,8.95
2022-11-10T06:42:27.601Z,8.00
2022-11-10T06:45:50.407Z,18.40
2022-11-10T06:49:13.152Z,3.05
2022-11-10T06:52:35.661Z,10.27
2022-11-10T06:55:58.402Z,9.15
2022-11-10T06:59:21.256Z,22.48
2022-11-10T07:02:44.524Z,3.25
2022-11-10T07:06:07.904Z,5.05
2022-11-10T07:09:31.298Z,3.15
2022-11-10T07:13:01.344Z,3.83
2022-11-10T07:16:24.663Z,2.58
2022-11-10T07:19:47.450Z,2.40
2022-11-10T07:23:10.831Z,3.63
2022-11-10T07:26:33.228Z,3.60
2022-11-10T07:29:56.044Z,7.55
2022-11-10T07:33:19.089Z,8.80
2022-11-10T07:36:41.814Z,10.00
2022-11-10T07:40:05.388Z,9.43
2022-11-10T07:43:28.162Z,11.98
2022-11-10T07:46:51.531Z,8.52
2022-11-10T07:50:14.415Z,9.15
2022-11-10T07:53:37.689Z,12.73
2022-11-10T07:57:00.493Z,14.45
2022-11-10T08:00:23.654Z,10.18
2022-11-10T08:03:46.622Z,20.55
2022-11-10T08:07:09.455Z,19.38
2022-11-10T08:10:34.932Z,16.92
2022-11-10T08:13:57.565Z,14.75
2022-11-10T08:17:20.421Z,13.32
2022-11-10T08:20:43.376Z,12.60
2022-11-10T08:24:07.687Z,19.50
2022-11-10T08:27:31.091Z,16.85
2022-11-10T08:30:54.188Z,18.55
2022-11-10T08:34:17.325Z,28.95
2022-11-10T08:37:39.812Z,49.60
2022-11-10T08:41:02.630Z,38.88
2022-11-10T08:44:25.395Z,52.63
2022-11-10T08:47:48.187Z,48.15
2022-11-10T08:51:10.758Z,47.67
2022-11-10T08:54:34.394Z,33.90
2022-11-10T08:58:01.605Z,23.17
2022-11-10T09:01:24.339Z,18.08
2022-11-10T09:04:47.412Z,19.42
2022-11-10T09:08:10.639Z,20.33
2022-11-10T09:11:33.364Z,19.42
2022-11-10T09:14:56.212Z,23.92
2022-11-10T09:18:19.135Z,32.38
2022-11-10T09:21:42.075Z,32.05
2022-11-10T09:25:05.889Z,25.35
2022-11-10T09:28:28.474Z,55.88
2022-11-10T09:31:51.585Z,41.25
2022-11-10T09:35:14.641Z,42.35
2022-11-10T09:38:37.650Z,31.13
2022-11-10T09:42:01.747Z,33.40
2022-11-10T09:45:48.413Z,23.75
2022-11-10T09:49:40.058Z,34.85
2022-11-10T09:53:04.337Z,58.42
2022-11-10T09:56:39.155Z,109.40
2022-11-10T10:00:02.026Z,72.72
2022-11-10T10:03:32.424Z,99.22
2022-11-10T10:07:24.008Z,106.00
2022-11-10T10:10:51.419Z,103.38
2022-11-10T10:14:40.408Z,104.78
2022-11-10T10:18:12.071Z,107.05
2022-11-10T10:21:47.723Z,114.18
2022-11-10T10:25:30.591Z,99.28
2022-11-10T10:28:54.014Z,100.15
2022-11-10T10:32:18.549Z,121.32
2022-11-10T10:35:43.258Z,78.47
2022-11-10T10:39:32.595Z,65.60
2022-11-10T10:42:55.396Z,69.97
2022-11-10T10:46:20.281Z,59.10
2022-11-10T10:50:26.434Z,53.45
2022-11-10T10:53:51.245Z,60.88
2022-11-10T10:57:31.538Z,66.13
2022-11-10T11:01:06.576Z,59.97
2022-11-10T11:04:39.187Z,82.70
2022-11-10T11:08:03.764Z,68.80
2022-11-10T11:11:36.846Z,44.90
2022-11-10T11:15:23.157Z,43.60
2022-11-10T11:18:47.046Z,48.30
2022-11-10T11:22:52.095Z,80.97
2022-11-10T11:26:48.145Z,39.25
2022-11-10T11:30:20.481Z,35.00
2022-11-10T11:33:51.034Z,30.77
2022-11-10T11:37:49.274Z,41.15
2022-11-10T11:41:21.197Z,34.25
2022-11-10T11:45:17.007Z,40.40
2022-11-10T11:49:20.444Z,33.63
2022-11-10T11:53:01.666Z,25.30
2022-11-10T11:56:39.126Z,36.47
2022-11-10T12:00:15.303Z,26.20
2022-11-10T12:03:42.661Z,27.70
2022-11-10T12:07:20.534Z,24.90
2022-11-10T12:11:02.646Z,24.63
2022-11-10T12:15:00.617Z,21.50
2022-11-10T12:18:29.323Z,21.90
2022-11-10T12:22:10.672Z,21.60
2022-11-10T12:25:44.669Z,15.65
2022-11-10T12:29:27.510Z,18.35
2022-11-10T12:32:53.969Z,19.23
2022-11-10T12:39:47.715Z,20.67
2022-11-10T12:43:18.074Z,19.92
2022-11-10T12:46:49.477Z,24.73
2022-11-10T12:50:17.502Z,24.27
2022-11-10T12:53:43.378Z,39.13
2022-11-10T12:57:20.833Z,18.25
2022-11-10T13:01:11.753Z,19.83
2022-11-10T13:04:35.990Z,34.47
2022-11-10T13:08:15.637Z,20.55
2022-11-10T13:11:41.282Z,20.30
2022-11-10T13:15:36.947Z,18.77
2022-11-10T13:19:00.313Z,20.90
2022-11-10T13:22:31.110Z,22.92
2022-11-10T13:26:02.735Z,29.48
2022-11-10T13:29:35.871Z,54.40
2022-11-10T13:33:36.331Z,86.55
2022-11-10T13:37:00.138Z,62.03
2022-11-10T13:40:26.265Z,32.08
2022-11-10T13:47:54.011Z,54.58
2022-11-10T13:51:32.224Z,56.40
2022-11-10T13:55:16.825Z,21.30
2022-11-10T13:58:45.344Z,17.23
2022-11-10T14:02:37.208Z,16.33
2022-11-10T14:06:11.130Z,12.25
2022-11-10T14:09:40.782Z,10.35
2022-11-10T14:13:19.306Z,11.02
2022-11-10T14:16:44.798Z,19.67
2022-11-10T14:20:42.518Z,49.95
2022-11-10T14:24:16.697Z,39.42
2022-11-10T14:27:40.293Z,85.72
2022-11-10T14:31:03.307Z,25.35
2022-11-10T14:34:26.967Z,18.80
2022-11-10T14:37:50.676Z,21.00
2022-11-10T14:41:21.042Z,21.08
2022-11-10T14:44:44.322Z,89.57
2022-11-10T14:48:20.185Z,71.20
2022-11-10T14:51:43.650Z,77.05
2022-11-10T14:55:21.111Z,67.93
2022-11-10T14:58:47.433Z,56.45
2022-11-10T15:02:16.001Z,26.67
2022-11-10T15:05:38.530Z,19.00
2022-11-10T15:09:12.644Z,49.08
2022-11-10T15:12:40.898Z,29.95
2022-11-10T15:16:26.324Z,41.05
2022-11-10T15:19:49.859Z,37.22
2022-11-10T15:23:33.064Z,23.60
2022-11-10T15:26:56.740Z,21.42
2022-11-10T15:30:27.008Z,23.52
2022-11-10T15:33:53.867Z,18.08
2022-11-10T15:37:30.595Z,22.73
2022-11-10T15:41:05.169Z,22.52
2022-11-10T15:44:32.104Z,20.30
2022-11-10T15:47:55.857Z,20.55
2022-11-10T15:51:25.898Z,16.30
2022-11-10T15:54:51.447Z,16.13
2022-11-10T15:58:25.401Z,18.73
2022-11-10T16:01:48.898Z,20.42
2022-11-10T16:05:13.549Z,21.00
2022-11-10T16:08:37.415Z,17.98
2022-11-10T16:12:00.477Z,17.42
2022-11-10T16:15:23.571Z,16.35
2022-11-10T16:18:47.139Z,46.25
2022-11-10T16:22:14.208Z,29.13
2022-11-10T16:25:37.627Z,27.23
2022-11-10T16:29:00.641Z,24.95
2022-11-10T16:32:23.592Z,28.73
2022-11-10T16:35:46.974Z,29.25
2022-11-10T16:39:14.907Z,19.92
2022-11-10T16:42:38.154Z,14.25
2022-11-10T16:46:05.297Z,16.98
2022-11-10T16:49:36.332Z,17.60
2022-11-10T16:52:59.467Z,20.40
2022-11-10T16:56:23.960Z,19.83
2022-11-10T16:59:46.655Z,19.83
2022-11-10T17:03:17.530Z,17.63
2022-11-10T17:06:40.754Z,16.90
2022-11-10T17:10:03.777Z,12.20
2022-11-10T17:13:28.598Z,19.13
2022-11-10T17:16:51.305Z,13.55
2022-11-10T17:20:33.145Z,16.85
2022-11-10T17:23:56.286Z,17.38
2022-11-10T17:27:20.963Z,18.45
2022-11-10T17:30:44.347Z,40.13
2022-11-10T17:34:07.267Z,25.10
2022-11-10T17:37:29.842Z,31.92
2022-11-10T17:40:53.314Z,20.58
2022-11-10T17:44:20.441Z,24.45
2022-11-10T17:47:43.484Z,21.77
2022-11-10T17:51:07.121Z,25.85
2022-11-10T17:54:30.038Z,27.70
2022-11-10T17:57:54.144Z,18.73
2022-11-10T18:01:22.601Z,22.33
2022-11-10T18:04:45.142Z,18.77
2022-11-10T18:08:08.457Z,22.58
2022-11-10T18:11:31.910Z,24.02
2022-11-10T18:14:54.532Z,22.00
2022-11-10T18:18:19.143Z,24.98
2022-11-10T18:21:42.130Z,23.70
2022-11-10T18:25:05.257Z,26.15
2022-11-10T18:28:28.126Z,19.65
2022-11-10T18:31:50.797Z,20.85
2022-11-10T18:35:13.681Z,21.40
2022-11-10T18:38:36.833Z,22.98
2022-11-10T18:41:59.868Z,23.63
2022-11-10T18:45:22.654Z,23.13
2022-11-10T18:48:49.313Z,24.10
2022-11-10T18:52:12.156Z,23.70
2022-11-10T18:55:34.952Z,25.88
2022-11-10T18:58:58.294Z,22.70
2022-11-10T19:02:21.303Z,22.95
2022-11-10T19:05:44.203Z,20.40
2022-11-10T19:09:07.544Z,18.48
2022-11-10T19:12:30.470Z,16.13
2022-11-10T19:15:53.521Z,16.73
2022-11-10T19:19:16.476Z,16.80
2022-11-10T19:22:39.533Z,17.92
2022-11-10T19:26:07.658Z,17.80
2022-11-10T19:29:29.931Z,17.77
2022-11-10T19:32:53.252Z,16.33
2022-11-10T19:36:19.433Z,13.15
2022-11-10T19:43:04.987Z,11.25
2022-11-10T19:46:29.712Z,10.63
2022-11-10T19:49:52.379Z,12.80
2022-11-10T19:53:17.290Z,13.70
2022-11-10T19:56:40.570Z,12.43
2022-11-10T20:00:03.166Z,12.70
2022-11-10T20:03:26.075Z,19.08
2022-11-10T20:06:49.051Z,18.77
2022-11-10T20:10:12.137Z,20.73
2022-11-10T20:13:35.393Z,20.77
2022-11-10T20:16:58.343Z,18.77
2022-11-10T20:20:21.759Z,18.75
2022-11-10T20:23:45.614Z,18.88
2022-11-10T20:27:08.179Z,19.42
2022-11-10T20:30:31.690Z,16.58
2022-11-10T20:33:56.951Z,18.50
2022-11-10T20:37:19.962Z,18.20
2022-11-10T20:40:44.790Z,14.25
2022-11-10T20:44:08.135Z,12.52
2022-11-10T20:47:31.050Z,17.52
2022-11-10T20:50:53.606Z,15.48
2022-11-10T20:54:18.225Z,16.88
2022-11-10T20:57:41.231Z,20.48
2022-11-10T21:01:15.015Z,17.73
2022-11-10T21:04:42.824Z,19.17
2022-11-10T21:08:07.184Z,19.73
2022-11-10T21:11:48.345Z,20.15
2022-11-10T21:15:11.387Z,26.20
2022-11-10T21:18:38.213Z,28.40
2022-11-10T21:22:01.510Z,30.38
2022-11-10T21:25:24.415Z,56.38
2022-11-10T21:28:46.941Z,53.30
2022-11-10T21:32:09.638Z,52.22
2022-11-10T21:35:37.746Z,35.00
2022-11-10T21:39:00.929Z,24.27
2022-11-10T21:42:24.194Z,27.08
2022-11-10T21:45:46.934Z,37.80
2022-11-10T21:49:09.372Z,36.50
2022-11-10T21:52:36.102Z,35.28
2022-11-10T21:56:03.975Z,30.80
2022-11-10T21:59:26.542Z,59.58
2022-11-10T22:02:49.238Z,31.98
2022-11-10T22:06:17.485Z,34.55
2022-11-10T22:09:58.805Z,31.25
2022-11-10T22:13:40.934Z,27.35
2022-11-10T22:17:22.479Z,31.63
2022-11-10T22:20:46.011Z,29.90
2022-11-10T22:24:29.569Z,32.00
2022-11-10T22:27:52.454Z,33.72
2022-11-10T22:31:15.345Z,31.05
2022-11-10T22:34:38.121Z,35.90
2022-11-10T22:38:07.934Z,38.47
2022-11-10T22:41:49.341Z,35.30
2022-11-10T22:45:12.277Z,21.80
2022-11-10T22:48:35.308Z,20.75
2022-11-10T22:51:58.283Z,26.27
2022-11-10T22:55:21.328Z,25.33
2022-11-10T22:58:44.405Z,27.08
2022-11-10T23:02:07.190Z,29.42
2022-11-10T23:05:29.791Z,29.23
2022-11-10T23:08:52.710Z,28.55
2022-11-10T23:12:15.100Z,25.92
2022-11-10T23:15:39.183Z,29.63
2022-11-10T23:19:02.818Z,33.83
2022-11-10T23:22:25.569Z,31.40
2022-11-10T23:25:59.221Z,24.60
2022-11-10T23:29:22.077Z,6.88
2022-11-10T23:32:45.058Z,4.75
2022-11-10T23:36:09.272Z,5.75
2022-11-10T23:39:32.212Z,6.10
2022-11-10T23:42:55.372Z,5.95
2022-11-10T23:46:18.556Z,6.35
2022-11-10T23:49:41.214Z,5.93
2022-11-10T23:53:03.989Z,6.43
2022-11-10T23:56:27.187Z,5.38
2022-11-10T23:59:50.304Z,6.68
